createdAt,value
2018-08-13T00:01:28.899Z,3.33
2018-08-13T00:03:56.780Z,2.93
2018-08-13T00:06:24.619Z,3.07
2018-08-13T00:08:52.477Z,3.63
2018-08-13T00:11:20.394Z,3.30
2018-08-13T00:13:48.307Z,3.20
2018-08-13T00:16:16.108Z,2.90
2018-08-13T00:18:43.996Z,2.70
2018-08-13T00:21:11.915Z,2.70
2018-08-13T00:23:39.741Z,3.40
2018-08-13T00:26:07.579Z,2.93
2018-08-13T00:28:35.436Z,2.90
2018-08-13T00:31:03.332Z,3.13
2018-08-13T00:33:31.189Z,3.23
2018-08-13T00:35:58.955Z,3.10
2018-08-13T00:38:26.748Z,3.47
2018-08-13T00:40:54.608Z,3.30
2018-08-13T00:43:22.447Z,2.80
2018-08-13T00:45:50.328Z,2.27
2018-08-13T00:48:18.127Z,2.13
2018-08-13T00:50:45.976Z,2.30
2018-08-13T00:53:13.879Z,2.50
2018-08-13T00:55:41.724Z,2.63
2018-08-13T00:58:09.524Z,2.60
2018-08-13T01:00:37.442Z,2.90
2018-08-13T01:03:06.431Z,2.77
2018-08-13T01:05:34.220Z,2.70
2018-08-13T01:08:02.091Z,2.43
2018-08-13T01:10:29.867Z,2.20
2018-08-13T01:12:57.653Z,2.47
2018-08-13T01:15:25.539Z,2.17
2018-08-13T01:17:53.387Z,2.40
2018-08-13T01:20:21.583Z,2.40
2018-08-13T01:22:49.466Z,2.83
2018-08-13T01:25:19.318Z,2.60
2018-08-13T01:27:47.127Z,2.33
2018-08-13T01:30:16.667Z,2.57
2018-08-13T01:32:44.515Z,2.30
2018-08-13T01:35:12.385Z,2.20
2018-08-13T01:37:40.219Z,2.47
2018-08-13T01:40:09.763Z,2.50
2018-08-13T01:42:37.797Z,2.57
2018-08-13T01:45:08.583Z,2.90
2018-08-13T01:47:36.508Z,2.57
2018-08-13T01:50:07.271Z,3.03
2018-08-13T01:52:35.151Z,2.60
2018-08-13T01:55:03.471Z,2.97
2018-08-13T01:57:31.303Z,2.73
2018-08-13T01:59:59.151Z,2.40
2018-08-13T02:02:27.011Z,2.60
2018-08-13T02:04:54.792Z,2.33
2018-08-13T02:07:22.727Z,2.57
2018-08-13T02:09:50.652Z,2.30
2018-08-13T02:12:18.599Z,3.20
2018-08-13T02:14:46.364Z,2.63
2018-08-13T02:17:14.168Z,2.30
2018-08-13T02:19:41.932Z,2.77
2018-08-13T02:22:09.888Z,2.90
2018-08-13T02:24:37.660Z,2.57
2018-08-13T02:27:05.574Z,2.67
2018-08-13T02:29:33.419Z,3.10
2018-08-13T02:32:01.236Z,2.80
2018-08-13T02:34:29.048Z,2.90
2018-08-13T02:36:56.920Z,3.27
2018-08-13T02:39:24.792Z,3.10
2018-08-13T02:41:52.583Z,3.07
2018-08-13T02:44:20.456Z,2.97
2018-08-13T02:46:48.271Z,2.97
2018-08-13T02:49:16.131Z,2.80
2018-08-13T02:51:44.024Z,3.13
2018-08-13T02:54:11.913Z,3.17
2018-08-13T02:56:39.807Z,2.80
2018-08-13T02:59:07.651Z,3.03
2018-08-13T03:01:35.573Z,3.03
2018-08-13T03:04:03.687Z,3.03
2018-08-13T03:06:31.598Z,2.93
2018-08-13T03:08:59.512Z,2.90
2018-08-13T03:11:27.253Z,2.97
2018-08-13T03:13:55.121Z,2.93
2018-08-13T03:16:24.226Z,2.73
2018-08-13T03:18:52.374Z,3.07
2018-08-13T03:21:20.280Z,3.00
2018-08-13T03:23:48.196Z,3.40
2018-08-13T03:26:16.020Z,2.50
2018-08-13T03:28:43.817Z,3.07
2018-08-13T03:31:11.635Z,3.07
2018-08-13T03:33:39.523Z,2.87
2018-08-13T03:36:07.751Z,3.00
2018-08-13T03:38:35.639Z,2.97
2018-08-13T03:41:03.595Z,2.83
2018-08-13T03:43:31.441Z,2.70
2018-08-13T03:45:59.300Z,3.10
2018-08-13T03:48:27.142Z,3.00
2018-08-13T03:50:55.002Z,2.63
2018-08-13T03:53:22.964Z,3.10
2018-08-13T03:55:50.804Z,3.47
2018-08-13T03:58:18.715Z,2.73
2018-08-13T04:00:46.597Z,3.10
2018-08-13T04:03:14.425Z,3.03
2018-08-13T04:05:42.306Z,3.20
2018-08-13T04:08:10.182Z,3.30
2018-08-13T04:10:38.104Z,3.10
2018-08-13T04:13:05.915Z,3.20
2018-08-13T04:15:33.824Z,3.60
2018-08-13T04:18:01.620Z,3.13
2018-08-13T04:20:29.493Z,3.10
2018-08-13T04:22:57.359Z,2.87
2018-08-13T04:25:25.299Z,3.00
2018-08-13T04:27:53.155Z,3.33
2018-08-13T04:30:20.977Z,2.80
2018-08-13T04:32:48.821Z,2.87
2018-08-13T04:35:16.647Z,3.20
2018-08-13T04:37:45.415Z,2.90
2018-08-13T04:40:15.384Z,2.77
2018-08-13T04:42:44.178Z,2.97
2018-08-13T04:45:12.115Z,2.77
2018-08-13T04:47:42.802Z,2.40
2018-08-13T04:50:10.619Z,3.00
2018-08-13T04:52:38.475Z,2.83
2018-08-13T04:55:07.945Z,2.63
2018-08-13T04:57:35.768Z,2.50
2018-08-13T05:00:04.918Z,2.50
2018-08-13T05:02:32.723Z,2.87
2018-08-13T05:05:00.578Z,3.20
2018-08-13T05:07:28.523Z,3.63
2018-08-13T05:09:56.271Z,3.67
2018-08-13T05:12:24.097Z,4.10
2018-08-13T05:14:51.991Z,3.03
2018-08-13T05:17:19.951Z,3.17
2018-08-13T05:19:47.755Z,2.80
2018-08-13T05:22:15.631Z,2.93
2018-08-13T05:24:43.792Z,3.83
2018-08-13T05:27:11.651Z,3.00
2018-08-13T05:29:39.449Z,2.73
2018-08-13T05:32:07.724Z,2.90
2018-08-13T05:34:35.532Z,3.20
2018-08-13T05:37:03.452Z,2.73
2018-08-13T05:39:31.324Z,3.13
2018-08-13T05:41:59.159Z,3.17
2018-08-13T05:44:27.018Z,3.20
2018-08-13T05:46:54.904Z,3.03
2018-08-13T05:49:22.811Z,3.30
2018-08-13T05:51:50.756Z,2.50
2018-08-13T05:54:18.831Z,3.30
2018-08-13T05:56:46.728Z,3.10
2018-08-13T05:59:14.643Z,3.17
2018-08-13T06:01:42.636Z,2.67
2018-08-13T06:04:10.455Z,3.13
2018-08-13T06:06:38.219Z,3.00
2018-08-13T06:09:10.594Z,3.17
2018-08-13T06:11:38.492Z,3.30
2018-08-13T06:14:06.443Z,3.50
2018-08-13T06:16:34.295Z,3.43
2018-08-13T06:19:02.211Z,3.30
2018-08-13T06:21:30.076Z,3.43
2018-08-13T06:23:57.944Z,4.23
2018-08-13T06:26:25.760Z,4.00
2018-08-13T06:28:53.601Z,3.70
2018-08-13T06:31:21.439Z,4.20
2018-08-13T06:33:49.290Z,5.60
2018-08-13T06:36:17.159Z,5.07
2018-08-13T06:38:45.048Z,5.17
2018-08-13T06:41:12.955Z,4.30
2018-08-13T06:43:40.795Z,5.20
2018-08-13T06:46:08.707Z,4.10
2018-08-13T06:48:36.602Z,5.40
2018-08-13T06:51:04.503Z,5.10
2018-08-13T06:53:33.647Z,5.50
2018-08-13T06:56:01.456Z,4.67
2018-08-13T06:58:29.311Z,5.13
2018-08-13T07:00:57.089Z,4.73
2018-08-13T07:03:24.949Z,4.70
2018-08-13T07:05:52.783Z,5.17
2018-08-13T07:08:20.623Z,4.73
2018-08-13T07:10:48.424Z,4.57
2018-08-13T07:13:16.259Z,3.47
2018-08-13T07:15:44.141Z,4.37
2018-08-13T07:18:11.871Z,3.67
2018-08-13T07:20:39.708Z,5.23
2018-08-13T07:23:07.663Z,4.47
2018-08-13T07:25:35.535Z,4.60
2018-08-13T07:28:03.498Z,2.93
2018-08-13T07:30:31.315Z,3.90
2018-08-13T07:32:59.082Z,5.70
2018-08-13T07:35:26.943Z,5.17
2018-08-13T07:37:54.991Z,5.33
2018-08-13T07:40:22.859Z,5.47
2018-08-13T07:42:50.731Z,6.37
2018-08-13T07:45:18.962Z,3.93
2018-08-13T07:47:52.463Z,6.27
2018-08-13T07:50:20.399Z,6.33
2018-08-13T07:52:48.429Z,6.00
2018-08-13T07:55:19.574Z,6.10
2018-08-13T07:57:47.586Z,5.63
2018-08-13T08:00:17.771Z,7.07
2018-08-13T08:02:52.586Z,6.83
2018-08-13T08:05:22.237Z,4.40
2018-08-13T08:07:50.246Z,6.37
2018-08-13T08:10:24.121Z,7.83
2018-08-13T08:12:52.219Z,7.87
2018-08-13T08:15:20.177Z,7.17
2018-08-13T08:17:49.361Z,8.30
2018-08-13T08:20:17.342Z,9.57
2018-08-13T08:22:45.195Z,9.70
2018-08-13T08:25:16.688Z,9.07
2018-08-13T08:27:44.976Z,6.97
2018-08-13T08:30:13.340Z,7.63
2018-08-13T08:32:41.309Z,6.53
2018-08-13T08:35:11.215Z,7.90
2018-08-13T08:37:39.689Z,6.97
2018-08-13T08:40:13.010Z,7.37
2018-08-13T08:42:40.999Z,6.03
2018-08-13T08:45:14.379Z,5.77
2018-08-13T08:47:42.761Z,6.33
2018-08-13T08:50:10.768Z,5.77
2018-08-13T08:52:38.734Z,6.87
2018-08-13T08:55:07.527Z,6.17
2018-08-13T08:57:35.415Z,7.13
2018-08-13T09:00:04.370Z,6.67
2018-08-13T09:02:32.182Z,7.80
2018-08-13T09:05:00.037Z,7.57
2018-08-13T09:07:27.869Z,8.77
2018-08-13T09:09:55.748Z,8.00
2018-08-13T09:12:23.650Z,7.67
2018-08-13T09:14:51.542Z,6.03
2018-08-13T09:17:19.414Z,4.93
2018-08-13T09:20:04.602Z,8.67
2018-08-13T09:22:49.617Z,6.83
2018-08-13T09:25:35.448Z,8.57
2018-08-13T09:28:20.531Z,7.67
2018-08-13T09:31:05.668Z,7.63
2018-08-13T09:33:50.840Z,8.90
2018-08-13T09:36:18.755Z,8.43
2018-08-13T09:38:46.648Z,9.60
2018-08-13T09:41:14.463Z,9.77
2018-08-13T09:43:42.284Z,10.00
2018-08-13T09:46:10.213Z,7.43
2018-08-13T09:48:37.992Z,9.37
2018-08-13T09:51:05.903Z,10.77
2018-08-13T09:53:33.700Z,9.80
2018-08-13T09:56:01.539Z,9.43
2018-08-13T09:58:29.409Z,9.57
2018-08-13T10:01:02.871Z,7.40
2018-08-13T10:03:30.748Z,8.37
2018-08-13T10:05:58.626Z,7.53
2018-08-13T10:08:26.512Z,8.10
2018-08-13T10:10:54.449Z,8.40
2018-08-13T10:13:22.256Z,6.97
2018-08-13T10:15:50.023Z,9.40
2018-08-13T10:18:17.908Z,7.90
2018-08-13T10:20:45.754Z,6.63
2018-08-13T10:23:13.667Z,7.63
2018-08-13T10:25:41.638Z,8.70
2018-08-13T10:28:09.585Z,7.67
2018-08-13T10:30:37.388Z,8.43
2018-08-13T10:33:05.775Z,7.50
2018-08-13T10:35:33.676Z,8.20
2018-08-13T10:38:01.592Z,9.77
2018-08-13T10:40:29.440Z,5.87
2018-08-13T10:42:57.367Z,8.47
2018-08-13T10:45:25.245Z,8.73
2018-08-13T10:47:53.104Z,9.33
2018-08-13T10:50:20.988Z,7.80
2018-08-13T10:52:48.967Z,9.33
2018-08-13T10:55:16.772Z,8.73
2018-08-13T10:57:44.726Z,7.03
2018-08-13T11:00:15.832Z,9.47
2018-08-13T11:02:43.949Z,7.13
2018-08-13T11:05:12.819Z,8.83
2018-08-13T11:07:40.766Z,7.90
2018-08-13T11:10:13.306Z,8.63
2018-08-13T11:12:41.148Z,6.23
2018-08-13T11:15:15.990Z,8.60
2018-08-13T11:17:43.899Z,7.10
2018-08-13T11:20:11.780Z,6.97
2018-08-13T11:22:40.491Z,8.43
2018-08-13T11:25:10.241Z,7.13
2018-08-13T11:27:38.079Z,7.60
2018-08-13T11:30:11.787Z,6.63
2018-08-13T11:32:39.646Z,5.47
2018-08-13T11:35:07.875Z,6.43
2018-08-13T11:37:36.119Z,6.97
2018-08-13T11:40:08.920Z,6.97
2018-08-13T11:42:36.867Z,7.47
2018-08-13T11:45:05.251Z,6.97
2018-08-13T11:47:33.068Z,6.60
2018-08-13T11:50:00.894Z,7.20
2018-08-13T11:52:28.799Z,6.93
2018-08-13T11:54:56.572Z,7.33
2018-08-13T11:57:24.525Z,6.70
2018-08-13T11:59:52.424Z,6.63
2018-08-13T12:02:20.304Z,5.30
2018-08-13T12:04:48.169Z,4.27
2018-08-13T12:07:16.066Z,4.83
2018-08-13T12:09:43.895Z,5.30
2018-08-13T12:12:11.809Z,5.40
2018-08-13T12:14:39.611Z,5.20
2018-08-13T12:17:07.519Z,4.73
2018-08-13T12:19:35.463Z,5.77
2018-08-13T12:22:03.247Z,4.90
2018-08-13T12:24:31.071Z,5.97
2018-08-13T12:26:58.898Z,5.30
2018-08-13T12:29:26.712Z,4.60
2018-08-13T12:31:54.591Z,4.47
2018-08-13T12:34:22.404Z,4.67
2018-08-13T12:36:54.796Z,4.70
2018-08-13T12:39:22.742Z,5.00
2018-08-13T12:41:50.531Z,4.57
2018-08-13T12:44:18.328Z,4.67
2018-08-13T12:46:46.123Z,5.20
2018-08-13T12:49:13.980Z,5.23
2018-08-13T12:51:41.836Z,5.43
2018-08-13T12:54:09.639Z,5.33
2018-08-13T12:56:37.491Z,5.13
2018-08-13T12:59:05.436Z,5.90
2018-08-13T13:01:33.324Z,5.80
2018-08-13T13:04:01.176Z,5.03
2018-08-13T13:06:29.059Z,4.10
2018-08-13T13:08:56.928Z,5.80
2018-08-13T13:11:24.962Z,5.63
2018-08-13T13:13:52.886Z,4.67
2018-08-13T13:16:20.732Z,4.30
2018-08-13T13:18:48.604Z,5.30
2018-08-13T13:21:16.407Z,4.77
2018-08-13T13:23:44.224Z,4.77
2018-08-13T13:26:12.103Z,5.10
2018-08-13T13:28:40.333Z,4.60
2018-08-13T13:31:08.307Z,4.13
2018-08-13T13:33:36.202Z,3.80
2018-08-13T13:36:04.118Z,4.00
2018-08-13T13:38:32.046Z,3.60
2018-08-13T13:40:59.924Z,3.53
2018-08-13T13:43:27.772Z,3.20
2018-08-13T13:45:55.618Z,3.03
2018-08-13T13:48:23.559Z,2.40
2018-08-13T13:50:51.591Z,2.87
2018-08-13T13:53:19.446Z,2.80
2018-08-13T13:55:47.383Z,2.90
2018-08-13T13:58:16.476Z,2.73
2018-08-13T14:00:44.436Z,2.47
2018-08-13T14:03:12.301Z,2.40
2018-08-13T14:05:40.203Z,2.43
2018-08-13T14:08:08.051Z,1.93
2018-08-13T14:10:35.942Z,2.50
2018-08-13T14:13:03.820Z,2.17
2018-08-13T14:15:31.742Z,1.87
2018-08-13T14:17:59.569Z,2.07
2018-08-13T14:20:27.498Z,2.37
2018-08-13T14:22:55.375Z,2.00
2018-08-13T14:25:23.178Z,2.23
2018-08-13T14:27:51.156Z,1.90
2018-08-13T14:30:22.877Z,2.10
2018-08-13T14:32:50.832Z,2.40
2018-08-13T14:35:20.241Z,2.20
2018-08-13T14:37:48.289Z,2.23
2018-08-13T14:40:16.122Z,2.57
2018-08-13T14:42:44.331Z,2.10
2018-08-13T14:45:13.876Z,2.40
2018-08-13T14:47:45.183Z,2.40
2018-08-13T14:50:13.481Z,2.17
2018-08-13T14:52:42.591Z,2.50
2018-08-13T14:55:11.485Z,2.40
2018-08-13T14:57:39.448Z,2.87
2018-08-13T15:00:15.188Z,2.80
2018-08-13T15:02:43.032Z,2.07
2018-08-13T15:05:11.031Z,3.00
2018-08-13T15:07:38.878Z,2.13
2018-08-13T15:10:13.988Z,2.90
2018-08-13T15:12:45.223Z,2.43
2018-08-13T15:15:13.287Z,2.67
2018-08-13T15:17:41.387Z,2.53
2018-08-13T15:20:17.175Z,2.43
2018-08-13T15:22:45.087Z,2.50
2018-08-13T15:25:13.080Z,2.20
2018-08-13T15:27:40.904Z,2.50
2018-08-13T15:30:12.952Z,2.90
2018-08-13T15:32:41.386Z,2.20
2018-08-13T15:35:09.418Z,2.20
2018-08-13T15:37:37.261Z,2.23
2018-08-13T15:40:06.747Z,2.30
2018-08-13T15:42:35.159Z,2.50
2018-08-13T15:45:03.815Z,2.60
2018-08-13T15:47:31.698Z,2.67
2018-08-13T15:49:59.495Z,2.33
2018-08-13T15:52:27.339Z,2.13
2018-08-13T15:54:55.107Z,2.10
2018-08-13T15:57:22.964Z,2.20
2018-08-13T15:59:50.892Z,2.20
2018-08-13T16:02:18.702Z,2.30
2018-08-13T16:04:46.561Z,2.33
2018-08-13T16:07:14.442Z,2.20
2018-08-13T16:09:42.307Z,2.13
2018-08-13T16:12:10.304Z,1.90
2018-08-13T16:14:38.359Z,2.03
2018-08-13T16:17:06.472Z,1.70
2018-08-13T16:19:34.561Z,1.60
2018-08-13T16:22:02.509Z,1.40
2018-08-13T16:24:30.375Z,1.87
2018-08-13T16:26:58.206Z,1.70
2018-08-13T16:29:26.037Z,1.50
2018-08-13T16:31:53.915Z,1.63
2018-08-13T16:34:21.775Z,1.70
2018-08-13T16:36:49.649Z,1.83
2018-08-13T16:39:17.544Z,1.60
2018-08-13T16:41:45.344Z,1.80
2018-08-13T16:44:13.087Z,1.57
2018-08-13T16:46:40.883Z,1.60
2018-08-13T16:49:08.783Z,1.80
2018-08-13T16:51:36.634Z,1.83
2018-08-13T16:54:04.656Z,1.80
2018-08-13T16:56:32.499Z,1.63
2018-08-13T16:59:00.267Z,1.60
2018-08-13T17:01:28.267Z,1.93
2018-08-13T17:03:56.143Z,1.90
2018-08-13T17:06:23.955Z,1.80
2018-08-13T17:08:51.908Z,2.13
2018-08-13T17:11:19.970Z,1.97
2018-08-13T17:13:47.934Z,1.83
2018-08-13T17:16:16.048Z,1.90
2018-08-13T17:18:43.851Z,2.00
2018-08-13T17:21:11.736Z,2.20
2018-08-13T17:23:39.619Z,1.67
2018-08-13T17:26:07.460Z,1.97
2018-08-13T17:28:35.265Z,2.40
2018-08-13T17:31:03.147Z,2.40
2018-08-13T17:33:31.020Z,1.70
2018-08-13T17:35:58.835Z,1.97
2018-08-13T17:38:26.710Z,2.10
2018-08-13T17:40:54.519Z,1.70
2018-08-13T17:43:22.352Z,2.10
2018-08-13T17:45:50.360Z,1.80
2018-08-13T17:48:18.123Z,1.93
2018-08-13T17:50:45.954Z,2.40
2018-08-13T17:53:13.787Z,2.50
2018-08-13T17:55:41.604Z,2.10
2018-08-13T17:58:09.406Z,2.20
2018-08-13T18:00:37.203Z,2.10
2018-08-13T18:03:05.302Z,2.30
2018-08-13T18:05:33.271Z,2.33
2018-08-13T18:08:01.191Z,2.10
2018-08-13T18:10:31.240Z,2.10
2018-08-13T18:13:00.974Z,1.90
2018-08-13T18:15:29.243Z,2.20
2018-08-13T18:17:57.216Z,2.43
2018-08-13T18:20:25.147Z,2.50
2018-08-13T18:22:53.329Z,2.43
2018-08-13T18:25:21.408Z,2.53
2018-08-13T18:27:50.271Z,2.30
2018-08-13T18:30:22.782Z,2.30
2018-08-13T18:32:51.137Z,2.63
2018-08-13T18:35:19.349Z,2.40
2018-08-13T18:37:47.568Z,1.97
2018-08-13T18:40:27.938Z,0.77
2018-08-13T18:42:55.839Z,0.87
2018-08-13T18:45:23.655Z,0.57
2018-08-13T18:47:51.912Z,0.70
2018-08-13T18:50:21.165Z,0.40
2018-08-13T18:52:49.419Z,0.40
2018-08-13T18:55:20.584Z,0.70
2018-08-13T18:57:49.015Z,0.53
2018-08-13T19:00:23.960Z,0.87
2018-08-13T19:02:51.931Z,0.70
2018-08-13T19:05:20.737Z,0.77
2018-08-13T19:07:49.934Z,0.90
2018-08-13T19:10:18.575Z,0.70
2018-08-13T19:12:46.479Z,0.70
2018-08-13T19:15:16.635Z,0.77
2018-08-13T19:17:44.479Z,0.83
2018-08-13T19:20:13.083Z,0.70
2018-08-13T19:22:41.063Z,0.80
2018-08-13T19:25:12.913Z,1.00
2018-08-13T19:27:40.937Z,0.77
2018-08-13T19:30:11.272Z,1.20
2018-08-13T19:32:39.238Z,0.97
2018-08-13T19:35:08.236Z,1.07
2018-08-13T19:37:36.135Z,0.80
2018-08-13T19:40:07.583Z,1.10
2018-08-13T19:42:35.468Z,1.17
2018-08-13T19:45:05.407Z,1.03
2018-08-13T19:47:33.282Z,1.00
2018-08-13T19:50:01.672Z,1.23
2018-08-13T19:52:29.630Z,0.70
2018-08-13T19:54:57.415Z,1.00
2018-08-13T19:57:25.520Z,1.00
2018-08-13T19:59:54.036Z,1.37
2018-08-13T20:02:21.887Z,1.30
2018-08-13T20:04:49.752Z,1.13
2018-08-13T20:07:17.840Z,1.47
2018-08-13T20:09:45.708Z,1.10
2018-08-13T20:12:13.471Z,1.50
2018-08-13T20:14:41.288Z,1.10
2018-08-13T20:17:09.119Z,0.87
2018-08-13T20:19:37.022Z,1.20
2018-08-13T20:22:10.076Z,1.20
2018-08-13T20:24:37.943Z,1.23
2018-08-13T20:27:05.974Z,1.13
2018-08-13T20:29:33.879Z,1.27
2018-08-13T20:32:01.827Z,1.27
2018-08-13T20:34:29.715Z,1.30
2018-08-13T20:36:57.698Z,1.50
2018-08-13T20:39:25.775Z,1.10
2018-08-13T20:41:53.742Z,1.37
2018-08-13T20:44:21.576Z,1.50
2018-08-13T20:46:49.461Z,1.37
2018-08-13T20:49:17.337Z,1.77
2018-08-13T20:51:45.063Z,1.30
2018-08-13T20:54:13.167Z,1.50
2018-08-13T20:56:41.196Z,1.30
2018-08-13T20:59:09.149Z,1.40
2018-08-13T21:01:37.059Z,1.53
2018-08-13T21:04:06.601Z,1.47
2018-08-13T21:06:34.433Z,1.43
2018-08-13T21:09:04.452Z,1.40
2018-08-13T21:11:32.231Z,1.20
2018-08-13T21:14:00.125Z,1.80
2018-08-13T21:16:27.963Z,1.60
2018-08-13T21:18:55.879Z,1.20
2018-08-13T21:21:23.782Z,1.27
2018-08-13T21:23:51.762Z,1.80
2018-08-13T21:26:20.183Z,1.37
2018-08-13T21:28:47.968Z,1.27
2018-08-13T21:31:16.142Z,1.50
2018-08-13T21:33:43.933Z,1.30
2018-08-13T21:36:18.037Z,1.30
2018-08-13T21:38:48.920Z,1.40
2018-08-13T21:41:20.375Z,1.30
2018-08-13T21:43:53.429Z,1.50
2018-08-13T21:46:21.331Z,1.50
2018-08-13T21:48:49.691Z,1.10
2018-08-13T21:51:17.632Z,1.17
2018-08-13T21:53:45.551Z,1.53
2018-08-13T21:56:13.348Z,1.50
2018-08-13T21:58:42.292Z,1.43
2018-08-13T22:01:16.099Z,1.33
2018-08-13T22:03:44.090Z,1.40
2018-08-13T22:06:12.749Z,1.40
2018-08-13T22:08:40.607Z,1.53
2018-08-13T22:11:09.051Z,1.43
2018-08-13T22:13:36.991Z,1.60
2018-08-13T22:16:05.032Z,1.60
2018-08-13T22:18:32.857Z,1.50
2018-08-13T22:21:01.634Z,1.40
2018-08-13T22:23:29.715Z,1.70
2018-08-13T22:26:00.802Z,1.10
2018-08-13T22:28:31.692Z,1.50
2018-08-13T22:31:06.065Z,1.50
2018-08-13T22:33:34.100Z,1.60
2018-08-13T22:36:02.081Z,1.80
2018-08-13T22:38:30.044Z,1.40
2018-08-13T22:40:58.279Z,1.57
2018-08-13T22:43:26.201Z,1.90
2018-08-13T22:45:54.075Z,1.70
2018-08-13T22:48:21.930Z,1.80
2018-08-13T22:50:49.696Z,1.90
2018-08-13T22:53:18.680Z,1.90
2018-08-13T22:55:46.556Z,1.60
2018-08-13T22:58:14.401Z,1.83
2018-08-13T23:00:42.249Z,1.40
2018-08-13T23:03:10.173Z,1.50
2018-08-13T23:05:38.165Z,1.97
2018-08-13T23:08:06.572Z,1.60
2018-08-13T23:10:34.392Z,1.53
2018-08-13T23:13:02.316Z,1.47
2018-08-13T23:15:30.154Z,1.30
2018-08-13T23:17:58.000Z,1.30
2018-08-13T23:20:27.913Z,1.43
2018-08-13T23:22:57.883Z,1.40
2018-08-13T23:25:26.208Z,1.17
2018-08-13T23:27:55.187Z,1.30
2018-08-13T23:30:23.180Z,1.50
2018-08-13T23:32:52.242Z,1.67
2018-08-13T23:35:20.851Z,1.70
2018-08-13T23:37:49.043Z,1.63
2018-08-13T23:40:17.116Z,1.60
2018-08-13T23:42:45.075Z,1.60
2018-08-13T23:45:15.792Z,1.53
2018-08-13T23:47:43.649Z,1.60
2018-08-13T23:50:17.116Z,1.77
2018-08-13T23:52:45.116Z,1.70
2018-08-13T23:55:23.682Z,1.63
2018-08-13T23:57:51.532Z,1.50
